createdAt,value
2018-11-03T00:00:02.457Z,18.07
2018-11-03T00:05:05.791Z,20.00
2018-11-03T00:10:08.939Z,13.47
2018-11-03T00:15:12.039Z,16.67
2018-11-03T00:20:15.183Z,15.10
2018-11-03T00:25:18.277Z,19.73
2018-11-03T00:30:21.390Z,12.60
2018-11-03T00:35:24.515Z,12.90
2018-11-03T00:40:27.744Z,13.60
2018-11-03T00:45:30.909Z,18.70
2018-11-03T00:50:34.002Z,17.63
2018-11-03T00:55:37.101Z,20.03
2018-11-03T01:00:40.226Z,16.80
2018-11-03T01:05:43.321Z,13.40
2018-11-03T01:10:46.421Z,12.47
2018-11-03T01:15:49.512Z,22.87
2018-11-03T01:20:52.670Z,13.63
2018-11-03T01:25:55.822Z,14.07
2018-11-03T01:30:58.921Z,24.33
2018-11-03T01:36:02.069Z,12.20
2018-11-03T01:41:05.234Z,14.43
2018-11-03T01:46:08.386Z,16.43
2018-11-03T01:51:11.616Z,21.97
2018-11-03T01:56:14.733Z,20.70
2018-11-03T02:01:18.189Z,19.07
2018-11-03T02:06:21.599Z,17.97
2018-11-03T02:11:25.127Z,21.10
2018-11-03T02:16:28.661Z,20.50
2018-11-03T02:21:32.162Z,17.67
2018-11-03T02:26:35.304Z,15.63
2018-11-03T02:31:38.422Z,15.33
2018-11-03T02:36:42.149Z,19.10
2018-11-03T02:41:45.272Z,13.97
2018-11-03T02:46:48.391Z,12.77
2018-11-03T02:51:51.514Z,16.40
2018-11-03T02:56:54.649Z,20.37
2018-11-03T03:01:57.789Z,20.97
2018-11-03T03:07:00.928Z,13.70
2018-11-03T03:12:04.198Z,17.10
2018-11-03T03:17:07.300Z,23.23
2018-11-03T03:22:10.446Z,18.03
2018-11-03T03:27:13.589Z,17.83
2018-11-03T03:32:16.713Z,15.27
2018-11-03T03:37:19.859Z,15.90
2018-11-03T03:42:22.973Z,15.67
2018-11-03T03:47:26.097Z,18.23
2018-11-03T03:52:29.270Z,19.37
2018-11-03T03:57:32.473Z,16.63
2018-11-03T04:02:35.596Z,17.37
2018-11-03T04:07:38.846Z,16.13
2018-11-03T04:12:42.430Z,16.80
2018-11-03T04:17:45.583Z,20.07
2018-11-03T04:22:48.760Z,18.70
2018-11-03T04:27:51.857Z,17.43
2018-11-03T04:32:54.953Z,19.50
2018-11-03T04:37:58.100Z,15.23
2018-11-03T04:43:02.320Z,15.30
2018-11-03T04:48:06.529Z,24.03
2018-11-03T04:53:16.295Z,21.93
2018-11-03T04:58:19.395Z,16.27
2018-11-03T05:03:22.678Z,17.87
2018-11-03T05:08:25.877Z,23.90
2018-11-03T05:13:28.962Z,18.77
2018-11-03T05:18:32.082Z,16.50
2018-11-03T05:23:35.293Z,17.80
2018-11-03T05:28:38.427Z,18.00
2018-11-03T05:33:41.532Z,20.97
2018-11-03T05:38:47.677Z,15.60
2018-11-03T05:43:50.973Z,19.97
2018-11-03T05:48:54.145Z,21.50
2018-11-03T05:53:58.470Z,23.23
2018-11-03T05:59:02.047Z,24.50
2018-11-03T06:04:05.378Z,25.50
2018-11-03T06:09:10.122Z,29.20
2018-11-03T06:14:13.370Z,29.27
2018-11-03T06:19:16.743Z,19.40
2018-11-03T06:24:21.151Z,25.87
2018-11-03T06:29:24.537Z,31.67
2018-11-03T06:34:27.729Z,25.60
2018-11-03T06:39:30.905Z,29.50
2018-11-03T06:44:34.773Z,26.77
2018-11-03T06:49:37.921Z,41.83
2018-11-03T06:54:41.120Z,29.43
2018-11-03T06:59:44.381Z,33.67
2018-11-03T07:04:47.525Z,27.17
2018-11-03T07:09:50.645Z,32.40
2018-11-03T07:14:53.767Z,30.53
2018-11-03T07:19:56.931Z,29.23
2018-11-03T07:25:00.139Z,28.63
2018-11-03T07:30:04.493Z,29.63
2018-11-03T07:35:08.354Z,31.97
2018-11-03T07:40:11.545Z,31.03
2018-11-03T07:45:14.653Z,30.83
2018-11-03T07:50:17.808Z,33.33
2018-11-03T07:55:20.964Z,37.33
2018-11-03T08:00:24.141Z,35.00
2018-11-03T08:05:27.236Z,40.37
2018-11-03T08:10:30.334Z,35.73
2018-11-03T08:15:33.458Z,36.57
2018-11-03T08:20:36.538Z,34.47
2018-11-03T08:25:39.637Z,35.80
2018-11-03T08:30:42.801Z,40.03
2018-11-03T08:35:45.989Z,36.53
2018-11-03T08:40:49.149Z,37.33
2018-11-03T08:45:53.037Z,37.47
2018-11-03T08:50:56.470Z,91.03
2018-11-03T08:56:57.322Z,63.87
2018-11-03T09:02:00.513Z,36.67
2018-11-03T09:07:03.774Z,39.43
2018-11-03T09:12:06.832Z,39.73
2018-11-03T09:17:10.021Z,36.13
2018-11-03T09:22:13.149Z,39.30
2018-11-03T09:27:16.300Z,40.30
2018-11-03T09:32:19.433Z,33.70
2018-11-03T09:37:22.561Z,35.67
2018-11-03T09:42:25.685Z,35.07
2018-11-03T09:47:28.825Z,35.50
2018-11-03T09:52:31.946Z,42.20
2018-11-03T09:57:35.106Z,35.73
2018-11-03T10:02:38.686Z,43.63
2018-11-03T10:07:41.802Z,30.73
2018-11-03T10:12:44.982Z,31.63
2018-11-03T10:17:48.211Z,29.80
2018-11-03T10:22:51.426Z,35.37
2018-11-03T10:27:54.453Z,32.17
2018-11-03T10:32:57.578Z,30.10
2018-11-03T10:38:00.728Z,36.23
2018-11-03T10:43:03.870Z,36.83
2018-11-03T10:48:07.107Z,29.53
2018-11-03T10:53:10.203Z,36.47
2018-11-03T10:58:13.317Z,27.10
2018-11-03T11:03:22.181Z,40.63
2018-11-03T11:08:31.461Z,32.20
2018-11-03T11:13:36.006Z,29.83
2018-11-03T11:18:39.115Z,31.97
2018-11-03T11:23:42.327Z,22.03
2018-11-03T11:28:45.402Z,15.80
2018-11-03T11:33:48.481Z,20.37
2018-11-03T11:38:51.621Z,18.13
2018-11-03T11:43:54.785Z,18.20
2018-11-03T11:48:57.904Z,21.13
2018-11-03T11:54:01.075Z,18.43
2018-11-03T11:59:04.360Z,11.03
2018-11-03T12:04:07.773Z,15.90
2018-11-03T12:09:10.877Z,11.07
2018-11-03T12:14:14.058Z,23.30
2018-11-03T12:19:17.312Z,15.20
2018-11-03T12:24:20.395Z,17.30
2018-11-03T12:29:23.615Z,11.93
2018-11-03T12:34:26.751Z,15.63
2018-11-03T12:39:29.900Z,8.37
2018-11-03T12:44:33.095Z,7.07
2018-11-03T12:49:36.252Z,4.40
2018-11-03T12:54:39.409Z,2.73
2018-11-03T12:59:42.527Z,6.13
2018-11-03T13:04:45.707Z,8.47
2018-11-03T13:09:49.134Z,3.53
2018-11-03T13:14:52.198Z,4.60
2018-11-03T13:19:55.302Z,9.50
2018-11-03T13:24:58.436Z,4.93
2018-11-03T13:30:01.515Z,8.33
2018-11-03T13:35:05.705Z,3.13
2018-11-03T13:40:10.389Z,9.33
2018-11-03T13:45:13.512Z,7.37
2018-11-03T13:50:17.101Z,6.77
2018-11-03T13:55:20.222Z,6.93
2018-11-03T14:00:23.333Z,4.60
2018-11-03T14:05:26.433Z,2.43
2018-11-03T14:10:29.555Z,4.60
2018-11-03T14:48:49.315Z,6.23
2018-11-03T14:53:52.478Z,4.83
2018-11-03T14:58:55.669Z,9.23
2018-11-03T15:03:58.784Z,4.63
2018-11-03T15:09:02.027Z,4.07
2018-11-03T15:14:06.267Z,3.30
2018-11-03T15:19:09.640Z,3.50
2018-11-03T15:24:14.187Z,5.77
2018-11-03T15:29:23.440Z,11.90
2018-11-03T15:34:28.615Z,7.40
2018-11-03T15:39:31.994Z,6.80
2018-11-03T15:44:35.514Z,10.03
2018-11-03T15:49:39.315Z,8.90
2018-11-03T15:54:42.629Z,4.30
2018-11-03T15:59:46.723Z,4.53
2018-11-03T16:04:52.115Z,7.63
2018-11-03T16:09:56.226Z,13.20
2018-11-03T16:14:59.376Z,29.07
2018-11-03T16:20:02.597Z,17.63
2018-11-03T16:25:07.534Z,15.53
2018-11-03T16:30:13.673Z,18.17
2018-11-03T16:35:16.903Z,22.90
2018-11-03T16:40:20.191Z,21.23
2018-11-03T16:45:23.367Z,18.27
2018-11-03T16:50:30.451Z,10.77
2018-11-03T16:55:33.812Z,13.80
2018-11-03T17:00:36.988Z,11.07
2018-11-03T17:05:40.319Z,20.00
2018-11-03T17:10:43.617Z,10.57
2018-11-03T17:15:47.131Z,14.83
2018-11-03T17:20:53.181Z,13.93
2018-11-03T17:25:56.411Z,9.67
2018-11-03T17:30:59.575Z,11.77
2018-11-03T17:36:02.860Z,11.33
2018-11-03T17:41:06.013Z,14.70
2018-11-03T17:46:09.177Z,11.37
2018-11-03T17:51:12.423Z,11.17
2018-11-03T17:56:15.595Z,15.03
2018-11-03T18:01:18.837Z,22.93
2018-11-03T18:06:21.934Z,14.17
2018-11-03T18:11:25.122Z,8.87
2018-11-03T18:16:28.223Z,7.50
2018-11-03T18:21:31.588Z,8.63
2018-11-03T18:26:34.768Z,9.73
2018-11-03T18:31:37.893Z,14.30
2018-11-03T18:36:43.082Z,10.43
2018-11-03T18:41:46.472Z,5.47
2018-11-03T18:46:49.646Z,12.63
2018-11-03T18:51:52.782Z,9.87
2018-11-03T18:56:55.901Z,12.07
2018-11-03T19:01:59.105Z,11.50
2018-11-03T19:07:02.315Z,8.13
2018-11-03T19:12:06.109Z,12.50
2018-11-03T19:17:09.326Z,11.10
2018-11-03T19:22:12.387Z,11.97
2018-11-03T19:27:18.093Z,6.97
2018-11-03T19:32:21.423Z,11.73
2018-11-03T19:37:24.675Z,17.20
2018-11-03T19:42:27.808Z,14.90
2018-11-03T19:47:31.011Z,11.00
2018-11-03T19:52:34.243Z,12.27
2018-11-03T19:57:37.503Z,12.60
2018-11-03T20:02:40.736Z,11.93
2018-11-03T20:07:44.465Z,16.30
2018-11-03T20:12:47.621Z,15.00
2018-11-03T20:17:50.816Z,24.60
2018-11-03T20:22:54.590Z,15.57
2018-11-03T20:27:58.545Z,26.43
2018-11-03T20:33:02.368Z,23.57
2018-11-03T20:38:06.703Z,15.07
2018-11-03T20:43:10.894Z,16.60
2018-11-03T20:48:15.346Z,19.83
2018-11-03T20:53:20.838Z,25.90
2018-11-03T20:58:25.736Z,23.60
2018-11-03T21:08:51.722Z,20.43
2018-11-03T21:13:55.582Z,22.57
2018-11-03T21:18:59.342Z,16.67
2018-11-03T21:24:04.120Z,20.50
2018-11-03T21:29:09.925Z,28.70
2018-11-03T21:34:13.610Z,24.77
2018-11-03T21:39:16.750Z,15.50
2018-11-03T21:44:19.896Z,20.40
2018-11-03T21:49:23.088Z,28.23
2018-11-03T21:54:26.289Z,17.10
2018-11-03T21:59:29.483Z,18.80
2018-11-03T22:04:33.071Z,20.33
2018-11-03T22:09:36.191Z,18.60
2018-11-03T22:14:39.509Z,17.40
2018-11-03T22:19:42.647Z,21.07
2018-11-03T22:24:45.818Z,24.27
2018-11-03T22:29:48.963Z,21.57
2018-11-03T22:34:52.095Z,22.70
2018-11-03T22:39:55.347Z,19.57
2018-11-03T22:44:58.482Z,19.97
2018-11-03T22:50:01.650Z,21.67
2018-11-03T22:55:05.831Z,21.50
2018-11-03T23:00:12.703Z,21.83
2018-11-03T23:05:15.888Z,19.57
2018-11-03T23:10:19.082Z,21.63
2018-11-03T23:15:22.233Z,18.20
2018-11-03T23:20:25.355Z,20.97
2018-11-03T23:25:28.495Z,19.97
2018-11-03T23:30:31.629Z,28.23
2018-11-03T23:35:34.743Z,20.07
2018-11-03T23:40:37.856Z,19.27
2018-11-03T23:45:40.999Z,23.93
2018-11-03T23:50:44.128Z,33.23
2018-11-03T23:55:47.272Z,22.40
